Andover, New Jersey
Current Conditions -  °F | °C
As of 1:53 PM on Saturday 25 Oct 2014 (Local Time) from KFWN Reporting Station
Clear Clear  
Wind Chill: 67°   Ceiling: Unl
Heat Index: 67°   Visibility: 10mi
Dew Point: 42°   Wind: 6mph
Humidity: 40%   Direction: NA
Pressure: 29.73"   Gusts: 21mph
Location:  40.99°N, 74.74°W
Report Text: KFWN 251753Z AUTO VRB05G18KT 10SM CLR 19/06 A2973 RMK AO2 SLP065 T01940056 10200 20044 56037
Loading
Personal Weather Stations






























Interactive Weather Map New forecast layout! Learn more

10-Day Weather Forecast

Advertisements
Track Severe Weather on mobile